Spring City, UT

3:42 PM MDT on October 20, 2014 (GMT -0600)
KUTSPRIN7 | Change Station
CLOSE
Current Station
Personal Weather Station
Location: Spring City, UT
Elevation: 5843 ft
Nearby Weather Stations

Elev 5843 ft 39.48 °N, 111.49 °W | Updated 26 minutes ago

Clear
Clear
69.1 °F
Feels Like 69.1 °F
N
0.0
Wind Variable Wind from SW
Gusts 4.0 mph

Today
High -- | Low -- °F
--% Chance of Precip.
Yesterday
High -- | Low -- °F
Precip. -- in
7:41 AM 6:39 PM
Waning Crescent, 9% visible
Pressure 30.01 in
Visibility 10.0 miles
Clouds Clear
Dew Point 40 °F
Humidity 34%
Rainfall 0.00 in
Snow Depth 0 in
UV 1.3 out of 12
Pollen 1.80 out of 12
Air Quality Not available.
Flu Activity Sporadic
METAR KPUC 202053Z AUTO 14008KT 10SM CLR 20/02 A3013 RMK AO2 SLP161 T02000022 58020 TSNO

More Conditions Fewer Conditions

Pressure 30.01 in
Visibility 10.0 miles
Clouds Clear
Dew Point 40 °F
Humidity 34%
Rainfall 0.00 in
Snow Depth 0 in
UV 1.3 out of 12
Pollen 1.80 out of 12
Air Quality Not available.
Flu Activity Sporadic
METAR KPUC 202053Z AUTO 14008KT 10SM CLR 20/02 A3013 RMK AO2 SLP161 T02000022 58020 TSNO

More Conditions Fewer Conditions

10-Day Weather Forecast

Almanac

Astronomy

Oct. 20, 2014 Rise Set
Actual Time 7:41 AM MDT 6:39 PM MDT
Civil Twilight 7:13 AM MDT 7:06 PM MDT
Nautical Twilight 6:42 AM MDT 7:38 PM MDT
Astronomical Twilight 6:11 AM MDT 8:09 PM MDT
Moon 4:33 AM MDT 5:03 PM MDT
Length of Visible Light 11h 52m
Length of Day
10h 58m
Waning Crescent, 9% of the Moon is Illuminated
Today
Waning Crescent
Oct 23
New
Oct 30
First Quarter
Nov 6
Full
Nov 14
Last Quarter

Today's Extremes

State Highs State Lows

Community

WunderPhotos

Upload Photos

1,763,527 photos uploaded!

WunderBlogs® & News

Nearby

Snow Depth

Station Depth Elevation
Seeley Creek 0 in 10000 ft
Clear Creek #2 0 in 8300 ft
Gooseberry R.S. 0 in 7920 ft
Cascade Mountain 0 in 7768 ft
Daniels-Strawberry 0 in 8000 ft

Earthquake Activity

City Distance Mag. Time & Date
No recent earthquake activity has been reported nearby.
Minimum magnitude displayed is 2.5.

Coastal Water Temperatures

Place Temperature
No Stations Reporting

Nearby Weather Stations